createdAt,value
2023-04-24T00:00:09.905Z,93366.16
2023-04-24T00:02:41.447Z,93366.16
2023-04-24T00:05:10.145Z,93363.59
2023-04-24T00:07:37.968Z,93363.59
2023-04-24T00:10:06.501Z,93363.97
2023-04-24T00:12:34.564Z,93354.53
2023-04-24T00:15:02.780Z,93352.22
2023-04-24T00:17:31.857Z,93346.56
2023-04-24T00:19:59.748Z,93338.38
2023-04-24T00:22:28.984Z,93340.84
2023-04-24T00:24:56.952Z,93340.00
2023-04-24T00:27:25.323Z,93330.78
2023-04-24T00:29:53.437Z,93331.53
2023-04-24T00:32:21.419Z,93336.28
2023-04-24T00:34:50.031Z,93330.31
2023-04-24T00:37:17.903Z,93329.75
2023-04-24T00:39:46.235Z,93322.97
2023-04-24T00:42:14.251Z,93325.41
2023-04-24T00:44:42.505Z,93316.81
2023-04-24T00:47:11.864Z,93316.56
2023-04-24T00:49:39.990Z,93305.53
2023-04-24T00:52:09.960Z,93307.00
2023-04-24T00:54:38.001Z,93307.47
2023-04-24T00:57:06.767Z,93305.94
2023-04-24T00:59:34.840Z,93305.53
2023-04-24T01:02:02.700Z,93305.69
2023-04-24T01:04:31.128Z,93304.56
2023-04-24T01:06:59.147Z,93308.91
2023-04-24T01:09:27.860Z,93307.13
2023-04-24T01:11:56.168Z,93305.88
2023-04-24T01:14:24.160Z,93316.78
2023-04-24T01:16:52.052Z,93311.97
2023-04-24T01:19:20.414Z,93316.16
2023-04-24T01:21:48.793Z,93309.66
2023-04-24T01:24:16.887Z,93306.16
2023-04-24T01:26:47.334Z,93302.88
2023-04-24T01:29:15.462Z,93309.47
2023-04-24T01:31:45.092Z,93300.03
2023-04-24T01:34:14.001Z,93295.13
2023-04-24T01:36:42.878Z,93300.84
2023-04-24T01:39:10.818Z,93303.63
2023-04-24T01:41:38.615Z,93306.38
2023-04-24T01:44:06.791Z,93300.50
2023-04-24T01:46:35.974Z,93305.09
2023-04-24T01:49:06.009Z,93310.41
2023-04-24T01:51:34.018Z,93300.13
2023-04-24T01:54:01.918Z,93299.94
2023-04-24T01:56:31.605Z,93290.53
2023-04-24T01:59:01.173Z,93284.75
2023-04-24T02:01:36.164Z,93281.75
2023-04-24T02:04:05.154Z,93269.59
2023-04-24T02:06:33.132Z,93235.41
2023-04-24T02:09:02.988Z,93224.09
2023-04-24T02:11:30.978Z,93225.84
2023-04-24T02:13:59.354Z,93239.06
2023-04-24T02:16:27.664Z,93247.25
2023-04-24T02:18:55.958Z,93253.84
2023-04-24T02:21:26.569Z,93241.31
2023-04-24T02:23:54.782Z,93229.00
2023-04-24T02:26:22.757Z,93230.03
2023-04-24T02:28:53.254Z,93229.84
2023-04-24T02:31:22.514Z,93232.53
2023-04-24T02:33:50.471Z,93234.78
2023-04-24T02:36:18.398Z,93228.66
2023-04-24T02:38:46.738Z,93223.91
2023-04-24T02:41:14.754Z,93222.91
2023-04-24T02:43:44.243Z,93230.13
2023-04-24T02:46:12.438Z,93222.56
2023-04-24T02:48:40.420Z,93226.56
2023-04-24T02:51:09.398Z,93202.75
2023-04-24T02:55:22.609Z,93216.28
2023-04-24T02:57:50.927Z,93220.63
2023-04-24T03:00:19.178Z,93221.28
2023-04-24T03:02:47.275Z,93217.31
2023-04-24T03:05:15.451Z,93225.03
2023-04-24T03:07:43.495Z,93226.50
2023-04-24T03:10:11.467Z,93208.50
2023-04-24T03:12:39.517Z,93222.41
2023-04-24T03:15:08.707Z,93211.72
2023-04-24T03:17:38.631Z,93221.38
2023-04-24T03:20:07.515Z,93222.06
2023-04-24T03:22:35.823Z,93221.84
2023-04-24T03:25:09.461Z,93225.44
2023-04-24T03:27:38.513Z,93219.00
2023-04-24T03:30:36.007Z,93217.81
2023-04-24T03:33:05.376Z,93218.84
2023-04-24T03:35:37.736Z,93227.53
2023-04-24T03:38:10.138Z,93217.03
2023-04-24T03:41:07.918Z,93215.34
2023-04-24T03:43:41.162Z,93220.38
2023-04-24T03:46:10.688Z,93221.28
2023-04-24T03:48:46.219Z,93223.28
2023-04-24T03:51:15.796Z,93209.19
2023-04-24T03:53:48.019Z,93216.75
2023-04-24T03:56:19.857Z,93218.84
2023-04-24T03:58:48.384Z,93216.28
2023-04-24T04:01:17.339Z,93215.72
2023-04-24T04:03:50.655Z,93215.63
2023-04-24T04:06:22.810Z,93218.13
2023-04-24T04:08:52.528Z,93216.03
2023-04-24T04:11:21.063Z,93224.94
2023-04-24T04:13:49.273Z,93215.94
2023-04-24T04:16:20.660Z,93216.75
2023-04-24T04:18:51.444Z,93219.91
2023-04-24T04:21:19.479Z,93224.81
2023-04-24T04:23:49.345Z,93227.09
2023-04-24T04:26:22.386Z,93217.69
2023-04-24T04:29:04.715Z,93219.06
2023-04-24T04:31:34.528Z,93234.00
2023-04-24T04:34:08.819Z,93229.38
2023-04-24T04:36:38.172Z,93223.34
2023-04-24T04:39:24.978Z,93232.50
2023-04-24T04:42:05.427Z,93232.31
2023-04-24T04:44:41.066Z,93218.25
2023-04-24T04:47:12.391Z,93218.38
2023-04-24T04:49:40.679Z,93225.94
2023-04-24T04:52:15.037Z,93228.69
2023-04-24T04:54:43.145Z,93222.56
2023-04-24T04:57:11.877Z,93222.13
2023-04-24T04:59:40.750Z,93192.50
2023-04-24T05:02:13.772Z,93226.03
2023-04-24T05:04:42.004Z,93231.44
2023-04-24T05:07:10.478Z,93229.00
2023-04-24T05:09:41.720Z,93227.91
2023-04-24T05:12:10.924Z,93232.78
2023-04-24T05:14:45.909Z,93229.91
2023-04-24T05:17:15.397Z,93232.16
2023-04-24T05:19:44.119Z,93232.47
2023-04-24T05:22:12.890Z,93233.84
2023-04-24T05:24:50.904Z,93236.28
2023-04-24T05:27:38.263Z,93239.78
2023-04-24T05:30:13.461Z,93239.81
2023-04-24T05:32:41.586Z,93227.06
2023-04-24T05:35:09.929Z,93238.63
2023-04-24T05:37:38.288Z,93238.66
2023-04-24T05:40:07.077Z,93233.91
2023-04-24T05:42:35.035Z,93230.22
2023-04-24T05:45:03.203Z,93237.19
2023-04-24T05:47:31.317Z,93244.66
2023-04-24T05:49:59.786Z,93232.63
2023-04-24T05:52:28.134Z,93230.47
2023-04-24T05:54:56.860Z,93230.91
2023-04-24T05:57:28.661Z,93242.88
2023-04-24T06:00:02.951Z,93236.75
2023-04-24T06:02:41.607Z,93231.53
2023-04-24T06:05:13.326Z,93232.44
2023-04-24T06:07:41.728Z,93229.16
2023-04-24T06:10:11.293Z,93220.19
2023-04-24T06:12:43.223Z,93222.47
2023-04-24T06:15:17.137Z,93219.38
2023-04-24T06:17:58.895Z,93211.06
2023-04-24T06:20:27.584Z,93203.66
2023-04-24T06:22:55.723Z,93201.22
2023-04-24T06:25:27.942Z,93207.97
2023-04-24T06:27:56.935Z,93196.28
2023-04-24T06:30:24.856Z,93190.91
2023-04-24T06:32:52.928Z,93196.50
2023-04-24T06:35:21.107Z,93187.34
2023-04-24T06:37:49.517Z,93189.56
2023-04-24T06:40:19.724Z,93199.50
2023-04-24T06:42:47.810Z,93200.66
2023-04-24T06:45:16.354Z,93200.69
2023-04-24T06:47:44.394Z,93187.75
2023-04-24T06:50:12.990Z,93191.38
2023-04-24T06:52:42.150Z,93194.09
2023-04-24T06:55:10.330Z,93186.97
2023-04-24T06:57:38.278Z,93188.94
2023-04-24T07:00:07.959Z,93184.44
2023-04-24T07:02:36.554Z,93183.81
2023-04-24T07:05:04.955Z,93173.88
2023-04-24T07:07:32.823Z,93176.72
2023-04-24T07:10:00.860Z,93181.50
2023-04-24T07:12:28.680Z,93176.00
2023-04-24T07:14:56.717Z,93170.66
2023-04-24T07:17:24.645Z,93170.59
2023-04-24T07:19:52.556Z,93152.97
2023-04-24T07:22:20.698Z,93169.25
2023-04-24T07:24:48.544Z,93174.94
2023-04-24T07:27:16.565Z,93167.78
2023-04-24T07:29:45.279Z,93164.47
2023-04-24T07:32:13.589Z,93175.38
2023-04-24T07:34:41.709Z,93178.84
2023-04-24T07:37:09.742Z,93158.16
2023-04-24T07:39:37.679Z,93155.94
2023-04-24T07:42:05.707Z,93154.19
2023-04-24T07:44:33.712Z,93158.25
2023-04-24T07:47:01.756Z,93137.44
2023-04-24T07:49:29.669Z,93147.06
2023-04-24T07:51:57.609Z,93149.56
2023-04-24T07:54:25.903Z,93144.50
2023-04-24T07:56:53.903Z,93140.81
2023-04-24T07:59:21.906Z,93137.47
2023-04-24T08:01:49.785Z,93136.28
2023-04-24T08:04:19.398Z,93136.28
2023-04-24T08:06:49.233Z,93132.94
2023-04-24T08:09:17.123Z,93136.34
2023-04-24T08:11:45.477Z,93134.53
2023-04-24T08:14:14.638Z,93133.03
2023-04-24T08:16:43.212Z,93131.75
2023-04-24T08:19:11.294Z,93141.09
2023-04-24T08:21:39.537Z,93128.59
2023-04-24T08:24:09.292Z,93120.31
2023-04-24T08:26:37.396Z,93124.97
2023-04-24T08:29:06.157Z,93116.13
2023-04-24T08:31:34.187Z,93113.19
2023-04-24T08:34:02.355Z,93112.59
2023-04-24T08:36:43.418Z,93090.13
2023-04-24T08:39:15.555Z,93110.41
2023-04-24T08:41:44.417Z,93108.41
2023-04-24T08:44:14.169Z,93107.97
2023-04-24T08:46:42.641Z,93091.00
2023-04-24T08:49:10.998Z,93115.19
2023-04-24T08:51:39.556Z,93114.03
2023-04-24T08:54:08.533Z,93110.81
2023-04-24T08:56:41.633Z,93090.91
2023-04-24T08:59:10.373Z,93101.13
2023-04-24T09:01:42.927Z,93092.91
2023-04-24T09:04:12.401Z,93087.44
2023-04-24T09:06:41.188Z,93090.41
2023-04-24T09:09:11.106Z,93085.94
2023-04-24T09:11:39.328Z,93078.75
2023-04-24T09:14:08.120Z,93083.88
2023-04-24T09:16:37.015Z,93091.34
2023-04-24T09:19:05.071Z,93075.34
2023-04-24T09:21:37.386Z,93068.41
2023-04-24T09:24:08.897Z,93075.25
2023-04-24T09:26:37.760Z,93092.38
2023-04-24T09:29:06.224Z,93067.75
2023-04-24T09:31:34.333Z,93075.47
2023-04-24T09:34:09.208Z,93081.19
2023-04-24T09:36:42.768Z,93080.06
2023-04-24T09:39:13.636Z,93070.09
2023-04-24T09:41:49.758Z,93062.59
2023-04-24T09:44:24.155Z,93072.59
2023-04-24T09:46:56.855Z,93074.91
2023-04-24T09:49:29.991Z,93083.78
2023-04-24T09:52:11.665Z,93077.66
2023-04-24T09:54:39.872Z,93072.94
2023-04-24T09:57:11.199Z,93061.81
2023-04-24T09:59:45.698Z,93058.88
2023-04-24T10:02:21.273Z,93071.00
2023-04-24T10:04:57.960Z,93058.34
2023-04-24T10:07:29.073Z,93053.50
2023-04-24T10:09:57.629Z,93056.50
2023-04-24T10:12:26.465Z,93046.72
2023-04-24T10:14:55.439Z,93035.50
2023-04-24T10:17:26.505Z,93031.13
2023-04-24T10:19:55.176Z,93035.31
2023-04-24T10:22:25.214Z,93029.66
2023-04-24T10:24:53.626Z,93027.41
2023-04-24T10:27:22.968Z,93031.44
2023-04-24T10:29:54.448Z,93033.06
2023-04-24T10:32:22.726Z,93016.44
2023-04-24T10:34:50.806Z,93041.22
2023-04-24T10:37:19.380Z,93017.91
2023-04-24T10:39:50.096Z,93014.88
2023-04-24T10:42:18.866Z,93017.50
2023-04-24T10:44:50.330Z,93017.13
2023-04-24T10:47:18.504Z,93011.84
2023-04-24T10:49:46.809Z,93008.34
2023-04-24T10:52:15.362Z,92999.88
2023-04-24T10:54:46.837Z,93005.13
2023-04-24T10:57:20.851Z,92996.16
2023-04-24T11:00:09.946Z,92997.75
2023-04-24T11:02:39.770Z,92999.38
2023-04-24T11:05:08.672Z,92987.00
2023-04-24T11:08:14.597Z,92984.19
2023-04-24T11:10:46.118Z,93000.28
2023-04-24T11:13:18.643Z,92963.84
2023-04-24T11:16:16.650Z,92988.66
2023-04-24T11:18:51.983Z,92993.81
2023-04-24T11:21:20.348Z,92991.78
2023-04-24T11:23:48.721Z,92997.84
2023-04-24T11:26:22.896Z,92985.63
2023-04-24T11:28:51.946Z,92983.63
2023-04-24T11:31:39.901Z,92970.91
2023-04-24T11:34:15.511Z,92971.19
2023-04-24T11:36:49.426Z,92969.47
2023-04-24T11:39:17.529Z,92972.22
2023-04-24T11:41:48.463Z,92966.53
2023-04-24T11:44:16.718Z,92977.84
2023-04-24T11:46:44.677Z,92989.03
2023-04-24T11:49:13.746Z,92997.34
2023-04-24T11:51:51.354Z,92995.50
2023-04-24T11:54:22.424Z,93000.00
2023-04-24T11:56:50.924Z,93003.09
2023-04-24T11:59:18.770Z,93010.84
2023-04-24T12:01:50.349Z,93024.28
2023-04-24T12:04:20.558Z,93033.13
2023-04-24T12:07:02.352Z,93035.06
2023-04-24T12:09:30.529Z,93012.16
2023-04-24T12:11:58.493Z,93017.88
2023-04-24T12:14:26.631Z,93013.09
2023-04-24T12:16:54.838Z,93007.38
2023-04-24T12:19:24.029Z,92993.25
2023-04-24T12:22:02.423Z,93006.41
2023-04-24T12:24:31.567Z,92986.09
2023-04-24T12:26:59.936Z,92988.44
2023-04-24T12:29:27.852Z,92998.94
2023-04-24T12:31:56.811Z,92992.94
2023-04-24T12:34:27.271Z,92983.03
2023-04-24T12:36:56.005Z,92967.50
2023-04-24T12:39:28.022Z,92979.78
2023-04-24T12:42:04.171Z,92975.41
2023-04-24T12:44:34.151Z,92993.84
2023-04-24T12:47:02.867Z,93003.41
2023-04-24T12:49:32.697Z,93004.81
2023-04-24T12:52:00.923Z,92983.31
2023-04-24T12:54:34.094Z,92977.03
2023-04-24T12:57:02.669Z,92988.28
2023-04-24T12:59:30.842Z,92976.25
2023-04-24T13:01:59.216Z,92977.16
2023-04-24T13:04:27.443Z,92974.28
2023-04-24T13:06:55.603Z,92953.03
2023-04-24T13:09:24.886Z,92945.03
2023-04-24T13:11:53.040Z,92941.19
2023-04-24T13:14:21.243Z,92938.72
2023-04-24T13:16:49.529Z,92930.25
2023-04-24T13:19:17.755Z,92935.38
2023-04-24T13:21:46.114Z,92933.47
2023-04-24T13:24:14.640Z,92923.00
2023-04-24T13:26:43.179Z,92925.06
2023-04-24T13:29:12.007Z,92919.59
2023-04-24T13:31:40.014Z,92929.34
2023-04-24T13:34:08.544Z,92924.72
2023-04-24T13:36:36.752Z,92918.16
2023-04-24T13:39:07.149Z,92918.47
2023-04-24T13:41:36.553Z,92919.44
2023-04-24T13:44:05.863Z,92911.59
2023-04-24T13:46:34.114Z,92914.44
2023-04-24T13:49:04.839Z,92908.81
2023-04-24T13:51:37.297Z,92909.53
2023-04-24T13:54:05.724Z,92918.25
2023-04-24T13:56:36.821Z,92907.28
2023-04-24T13:59:05.058Z,92909.84
2023-04-24T14:01:33.653Z,92898.84
2023-04-24T14:04:02.273Z,92881.78
2023-04-24T14:06:31.045Z,92889.97
2023-04-24T14:08:59.645Z,92899.53
2023-04-24T14:11:27.937Z,92895.72
2023-04-24T14:13:59.898Z,92889.13
2023-04-24T14:16:29.631Z,92891.09
2023-04-24T14:18:57.925Z,92892.38
2023-04-24T14:21:26.012Z,92886.38
2023-04-24T14:23:54.003Z,92891.44
2023-04-24T14:26:22.064Z,92884.34
2023-04-24T14:28:51.099Z,92887.03
2023-04-24T14:31:19.433Z,92889.72
2023-04-24T14:33:47.915Z,92880.44
2023-04-24T14:36:16.343Z,92848.97
2023-04-24T14:38:44.913Z,92883.00
2023-04-24T14:41:14.866Z,92873.97
2023-04-24T14:43:43.655Z,92874.81
2023-04-24T14:46:12.846Z,92874.81
2023-04-24T14:48:41.923Z,92879.88
2023-04-24T14:51:10.346Z,92866.72
2023-04-24T14:53:39.113Z,92858.41
2023-04-24T14:56:07.785Z,92857.97
2023-04-24T14:58:36.475Z,92859.34
2023-04-24T15:01:04.788Z,92852.34
2023-04-24T15:03:33.186Z,92848.03
2023-04-24T15:06:02.440Z,92863.09
2023-04-24T15:08:30.664Z,92856.94
2023-04-24T15:10:59.277Z,92849.78
2023-04-24T15:13:27.692Z,92846.91
2023-04-24T15:15:56.189Z,92838.22
2023-04-24T15:18:24.793Z,92846.25
2023-04-24T15:20:53.087Z,92852.03
2023-04-24T15:23:21.458Z,92851.59
2023-04-24T15:25:50.224Z,92851.41
2023-04-24T15:28:19.467Z,92827.44
2023-04-24T15:30:47.976Z,92825.63
2023-04-24T15:33:16.524Z,92832.41
2023-04-24T15:35:45.044Z,92824.06
2023-04-24T15:38:13.313Z,92827.34
2023-04-24T15:40:42.016Z,92829.44
2023-04-24T15:43:10.599Z,92831.97
2023-04-24T15:45:39.176Z,92820.31
2023-04-24T15:48:07.465Z,92822.03
2023-04-24T15:50:36.032Z,92824.31
2023-04-24T15:53:04.144Z,92806.81
2023-04-24T15:55:33.918Z,92827.06
2023-04-24T15:58:02.735Z,92824.28
2023-04-24T16:00:34.682Z,92824.31
2023-04-24T16:03:03.776Z,92815.66
2023-04-24T16:05:32.630Z,92802.38
2023-04-24T16:08:01.701Z,92807.88
2023-04-24T16:10:30.508Z,92810.94
2023-04-24T16:13:01.441Z,92819.78
2023-04-24T16:15:31.187Z,92812.81
2023-04-24T16:18:00.555Z,92795.00
2023-04-24T16:20:29.956Z,92808.94
2023-04-24T16:22:58.694Z,92808.34
2023-04-24T16:25:30.727Z,92807.91
2023-04-24T16:28:00.152Z,92796.28
2023-04-24T16:30:29.492Z,92795.97
2023-04-24T16:32:59.035Z,92784.25
2023-04-24T16:35:28.499Z,92789.34
2023-04-24T16:37:58.148Z,92791.69
2023-04-24T16:40:28.421Z,92788.59
2023-04-24T16:42:58.354Z,92800.22
2023-04-24T16:45:28.210Z,92805.19
2023-04-24T16:47:57.606Z,92828.03
2023-04-24T16:50:27.128Z,92875.91
2023-04-24T16:52:56.377Z,92875.75
2023-04-24T16:55:26.074Z,92891.19
2023-04-24T16:57:55.777Z,92890.34
2023-04-24T17:00:25.312Z,92892.44
2023-04-24T17:02:54.702Z,92897.16
2023-04-24T17:05:24.351Z,92907.84
2023-04-24T17:07:53.716Z,92904.81
2023-04-24T17:10:23.260Z,92909.72
2023-04-24T17:12:52.553Z,92905.47
2023-04-24T17:15:22.165Z,92901.81
2023-04-24T17:17:51.567Z,92913.47
2023-04-24T17:20:23.220Z,92907.88
2023-04-24T17:22:53.919Z,92905.47
2023-04-24T17:25:23.386Z,92877.06
2023-04-24T17:27:53.009Z,92891.97
2023-04-24T17:30:22.606Z,92892.56
2023-04-24T17:32:51.897Z,92891.16
2023-04-24T17:35:22.760Z,92894.94
2023-04-24T17:37:52.816Z,92896.38
2023-04-24T17:40:22.502Z,92900.69
2023-04-24T17:42:51.201Z,92906.59
2023-04-24T17:45:19.639Z,92907.88
2023-04-24T17:47:48.264Z,92914.44
2023-04-24T17:50:17.040Z,92917.41
2023-04-24T17:52:45.474Z,92926.28
2023-04-24T17:55:14.034Z,92932.94
2023-04-24T17:57:42.498Z,92951.53
2023-04-24T18:00:11.663Z,92956.69
2023-04-24T18:02:40.673Z,92971.66
2023-04-24T18:05:09.437Z,92988.13
2023-04-24T18:07:39.517Z,92997.63
2023-04-24T18:10:08.709Z,93006.75
2023-04-24T18:12:37.296Z,93012.97
2023-04-24T18:15:14.279Z,93017.03
2023-04-24T18:17:43.632Z,93023.16
2023-04-24T18:20:12.900Z,93020.41
2023-04-24T18:22:41.929Z,93017.72
2023-04-24T18:25:11.265Z,93006.50
2023-04-24T18:27:40.621Z,93012.50
2023-04-24T18:30:14.476Z,93018.34
2023-04-24T18:32:43.694Z,93021.31
2023-04-24T18:35:12.095Z,93018.91
2023-04-24T18:37:41.122Z,93003.16
2023-04-24T18:40:10.464Z,92998.78
2023-04-24T18:42:39.520Z,93002.28
2023-04-24T18:45:08.707Z,93002.28
2023-04-24T18:47:37.271Z,93006.53
2023-04-24T18:50:06.853Z,93016.63
2023-04-24T18:52:35.571Z,93021.66
2023-04-24T18:55:05.151Z,93026.59
2023-04-24T18:57:34.089Z,93019.69
2023-04-24T19:00:02.592Z,93059.75
2023-04-24T19:02:31.221Z,93056.56
2023-04-24T19:04:59.500Z,93056.84
2023-04-24T19:07:27.723Z,93052.06
2023-04-24T19:09:56.111Z,93047.03
2023-04-24T19:12:24.642Z,93034.56
2023-04-24T19:14:56.310Z,93045.22
2023-04-24T19:17:25.826Z,93033.44
2023-04-24T19:19:54.425Z,93015.78
2023-04-24T19:22:22.975Z,93027.38
2023-04-24T19:24:51.578Z,93015.22
2023-04-24T19:27:20.037Z,93007.16
2023-04-24T19:29:48.678Z,93005.22
2023-04-24T19:32:17.171Z,92996.88
2023-04-24T19:34:45.952Z,92991.31
2023-04-24T19:37:14.548Z,92987.84
2023-04-24T19:39:43.004Z,92982.22
2023-04-24T19:42:11.500Z,92975.53
2023-04-24T19:44:39.803Z,92960.56
2023-04-24T19:47:08.710Z,92959.97
2023-04-24T19:49:36.840Z,92951.22
2023-04-24T19:52:05.569Z,92967.22
2023-04-24T19:54:34.076Z,92954.94
2023-04-24T19:57:04.043Z,92932.56
2023-04-24T19:59:33.998Z,92972.78
2023-04-24T20:02:02.735Z,92971.75
2023-04-24T20:04:31.530Z,92976.56
2023-04-24T20:07:00.169Z,92964.81
2023-04-24T20:09:29.868Z,92975.25
2023-04-24T20:11:59.786Z,92962.41
2023-04-24T20:14:28.181Z,92953.56
2023-04-24T20:16:56.805Z,92959.97
2023-04-24T20:19:25.198Z,92956.50
2023-04-24T20:21:54.568Z,92952.22
2023-04-24T20:24:23.022Z,92949.50
2023-04-24T20:26:51.754Z,92953.00
2023-04-24T20:29:19.994Z,92965.13
2023-04-24T20:31:48.215Z,92976.59
2023-04-24T20:34:16.299Z,92954.13
2023-04-24T20:36:48.816Z,92941.56
2023-04-24T20:39:17.787Z,92942.19
2023-04-24T20:41:46.808Z,92932.06
2023-04-24T20:44:15.286Z,92927.22
2023-04-24T20:46:43.566Z,92937.38
2023-04-24T20:49:12.136Z,92936.06
2023-04-24T20:51:40.240Z,92917.91
2023-04-24T20:54:08.526Z,92916.81
2023-04-24T20:56:37.265Z,92916.06
2023-04-24T20:59:05.382Z,92913.13
2023-04-24T21:01:33.524Z,92908.25
2023-04-24T21:04:01.964Z,92903.47
2023-04-24T21:06:30.021Z,92906.06
2023-04-24T21:08:58.094Z,92893.31
2023-04-24T21:11:25.989Z,92906.13
2023-04-24T21:13:54.231Z,92905.84
2023-04-24T21:16:22.353Z,92908.50
2023-04-24T21:18:50.284Z,92906.59
2023-04-24T21:21:18.398Z,92900.25
2023-04-24T21:23:46.598Z,92910.66
2023-04-24T21:26:14.757Z,92901.34
2023-04-24T21:28:42.940Z,92903.97
2023-04-24T21:31:11.900Z,92890.94
2023-04-24T21:33:39.842Z,92887.75
2023-04-24T21:36:07.946Z,92897.66
2023-04-24T21:38:35.837Z,92891.78
2023-04-24T21:41:04.140Z,92901.09
2023-04-24T21:43:43.859Z,92905.88
2023-04-24T21:46:13.214Z,92895.47
2023-04-24T21:48:41.105Z,92896.25
2023-04-24T21:51:09.137Z,92898.88
2023-04-24T21:53:37.256Z,92898.59
2023-04-24T21:56:05.430Z,92898.34
2023-04-24T21:58:33.506Z,92893.78
2023-04-24T22:01:01.473Z,92890.94
2023-04-24T22:03:30.646Z,92878.97
2023-04-24T22:05:58.664Z,92884.84
2023-04-24T22:08:26.680Z,92880.84
2023-04-24T22:10:54.955Z,92876.28
2023-04-24T22:13:24.203Z,92860.81
2023-04-24T22:15:52.459Z,92877.31
2023-04-24T22:18:20.709Z,92879.72
2023-04-24T22:20:49.030Z,92885.31
2023-04-24T22:23:18.289Z,92870.47
2023-04-24T22:25:46.231Z,92872.03
2023-04-24T22:28:14.051Z,92863.50
2023-04-24T22:30:42.138Z,92853.63
2023-04-24T22:33:10.198Z,92857.66
2023-04-24T22:35:38.214Z,92855.78
2023-04-24T22:38:06.058Z,92855.81
2023-04-24T22:40:35.292Z,92847.50
2023-04-24T22:43:03.917Z,92843.56
2023-04-24T22:45:34.600Z,92841.69
2023-04-24T22:48:02.939Z,92843.03
2023-04-24T22:50:31.251Z,92848.63
2023-04-24T22:52:59.083Z,92841.19
2023-04-24T22:55:27.125Z,92844.63
2023-04-24T22:57:57.692Z,92848.09
2023-04-24T23:00:25.755Z,92841.44
2023-04-24T23:02:53.808Z,92840.91
2023-04-24T23:05:22.629Z,92849.94
2023-04-24T23:07:50.628Z,92834.78
2023-04-24T23:10:18.591Z,92848.63
2023-04-24T23:12:46.386Z,92861.19
2023-04-24T23:15:14.351Z,92858.50
2023-04-24T23:17:42.433Z,92845.69
2023-04-24T23:20:14.522Z,92830.25
2023-04-24T23:22:42.760Z,92833.19
2023-04-24T23:25:11.168Z,92827.31
2023-04-24T23:27:39.838Z,92824.13
2023-04-24T23:30:08.477Z,92827.28
2023-04-24T23:32:36.504Z,92852.31
2023-04-24T23:35:05.062Z,92855.56
2023-04-24T23:37:33.016Z,92855.28
2023-04-24T23:40:01.089Z,92862.78
2023-04-24T23:42:29.145Z,92855.84
2023-04-24T23:44:56.917Z,92860.34
2023-04-24T23:47:24.774Z,92862.75
2023-04-24T23:49:52.862Z,92855.31
2023-04-24T23:52:20.730Z,92851.03
2023-04-24T23:54:48.714Z,92832.63
2023-04-24T23:57:16.550Z,92854.72
2023-04-24T23:59:44.433Z,92849.38
